sensor_id;sensor_type;location;lat;lon;timestamp;noise_LAeq;noise_LA_min;noise_LA_max;noise_LA01;noise_LA95
18377;Laerm;9315;52.624;13.544;2023-04-24T00:00:05;55.58;37.71;72.10;;
18377;Laerm;9315;52.624;13.544;2023-04-24T00:02:33;55.55;37.99;72.42;;
18377;Laerm;9315;52.624;13.544;2023-04-24T00:05:01;39.72;36.09;44.23;;
18377;Laerm;9315;52.624;13.544;2023-04-24T00:07:29;40.29;36.55;45.81;;
18377;Laerm;9315;52.624;13.544;2023-04-24T00:09:57;58.54;37.15;77.24;;
18377;Laerm;9315;52.624;13.544;2023-04-24T00:12:25;53.84;37.82;73.59;;
18377;Laerm;9315;52.624;13.544;2023-04-24T00:14:53;40.00;34.31;45.34;;
18377;Laerm;9315;52.624;13.544;2023-04-24T00:17:21;56.50;36.18;72.19;;
18377;Laerm;9315;52.624;13.544;2023-04-24T00:19:49;44.18;36.46;59.95;;
18377;Laerm;9315;52.624;13.544;2023-04-24T00:22:26;41.94;37.85;47.77;;
18377;Laerm;9315;52.624;13.544;2023-04-24T00:24:54;60.40;34.28;79.69;;
18377;Laerm;9315;52.624;13.544;2023-04-24T00:27:21;54.86;36.14;74.17;;
18377;Laerm;9315;52.624;13.544;2023-04-24T00:29:49;59.82;37.63;81.38;;
18377;Laerm;9315;52.624;13.544;2023-04-24T00:32:18;41.62;37.31;51.04;;
18377;Laerm;9315;52.624;13.544;2023-04-24T00:34:45;40.79;37.09;45.21;;
18377;Laerm;9315;52.624;13.544;2023-04-24T00:37:13;40.70;37.06;44.80;;
18377;Laerm;9315;52.624;13.544;2023-04-24T00:39:42;58.36;37.74;75.13;;
18377;Laerm;9315;52.624;13.544;2023-04-24T00:42:13;54.50;37.61;73.41;;
18377;Laerm;9315;52.624;13.544;2023-04-24T00:44:48;59.30;37.96;75.03;;
18377;Laerm;9315;52.624;13.544;2023-04-24T00:47:19;42.66;39.11;47.26;;
18377;Laerm;9315;52.624;13.544;2023-04-24T00:49:48;41.98;37.28;46.28;;
18377;Laerm;9315;52.624;13.544;2023-04-24T00:52:15;40.22;36.17;45.19;;
18377;Laerm;9315;52.624;13.544;2023-04-24T00:54:45;57.89;37.18;76.39;;
18377;Laerm;9315;52.624;13.544;2023-04-24T00:57:14;53.46;36.99;69.40;;
18377;Laerm;9315;52.624;13.544;2023-04-24T00:59:44;57.80;37.77;73.15;;
18377;Laerm;9315;52.624;13.544;2023-04-24T01:02:15;55.04;36.24;73.18;;
18377;Laerm;9315;52.624;13.544;2023-04-24T01:04:42;40.80;36.85;45.72;;
18377;Laerm;9315;52.624;13.544;2023-04-24T01:07:10;59.95;37.59;76.47;;
18377;Laerm;9315;52.624;13.544;2023-04-24T01:09:41;55.25;36.34;72.40;;
18377;Laerm;9315;52.624;13.544;2023-04-24T01:12:09;59.39;38.52;76.67;;
18377;Laerm;9315;52.624;13.544;2023-04-24T01:14:37;54.23;38.32;71.22;;
18377;Laerm;9315;52.624;13.544;2023-04-24T01:17:05;50.36;38.10;65.78;;
18377;Laerm;9315;52.624;13.544;2023-04-24T01:19:32;52.86;37.97;72.55;;
18377;Laerm;9315;52.624;13.544;2023-04-24T01:22:02;60.85;38.57;76.63;;
18377;Laerm;9315;52.624;13.544;2023-04-24T01:24:31;59.59;40.16;78.53;;
18377;Laerm;9315;52.624;13.544;2023-04-24T01:26:58;55.71;40.29;72.85;;
18377;Laerm;9315;52.624;13.544;2023-04-24T01:29:25;42.22;38.24;46.67;;
18377;Laerm;9315;52.624;13.544;2023-04-24T01:31:56;56.35;40.59;70.79;;
18377;Laerm;9315;52.624;13.544;2023-04-24T01:34:26;59.87;39.79;72.84;;
18377;Laerm;9315;52.624;13.544;2023-04-24T01:36:56;57.55;40.54;75.62;;
18377;Laerm;9315;52.624;13.544;2023-04-24T01:39:23;58.05;40.04;71.43;;
18377;Laerm;9315;52.624;13.544;2023-04-24T01:41:52;56.31;41.91;71.81;;
18377;Laerm;9315;52.624;13.544;2023-04-24T01:44:21;60.09;40.68;76.71;;
18377;Laerm;9315;52.624;13.544;2023-04-24T01:46:49;58.15;40.83;74.37;;
18377;Laerm;9315;52.624;13.544;2023-04-24T01:49:16;51.33;39.26;70.33;;
18377;Laerm;9315;52.624;13.544;2023-04-24T01:51:43;58.80;41.02;76.34;;
18377;Laerm;9315;52.624;13.544;2023-04-24T01:54:10;56.60;41.91;72.12;;
18377;Laerm;9315;52.624;13.544;2023-04-24T01:56:43;46.37;40.15;61.10;;
18377;Laerm;9315;52.624;13.544;2023-04-24T01:59:11;44.63;40.63;49.62;;
18377;Laerm;9315;52.624;13.544;2023-04-24T02:01:39;61.97;40.91;79.92;;
18377;Laerm;9315;52.624;13.544;2023-04-24T02:04:07;64.57;42.85;79.35;;
18377;Laerm;9315;52.624;13.544;2023-04-24T02:06:35;61.73;42.58;76.86;;
18377;Laerm;9315;52.624;13.544;2023-04-24T02:09:05;57.16;42.29;72.96;;
18377;Laerm;9315;52.624;13.544;2023-04-24T02:11:32;54.08;41.16;70.81;;
18377;Laerm;9315;52.624;13.544;2023-04-24T02:14:01;59.78;40.50;75.95;;
18377;Laerm;9315;52.624;13.544;2023-04-24T02:16:29;58.19;42.52;73.68;;
18377;Laerm;9315;52.624;13.544;2023-04-24T02:19:00;60.74;42.26;72.99;;
18377;Laerm;9315;52.624;13.544;2023-04-24T02:21:27;59.58;44.85;72.31;;
18377;Laerm;9315;52.624;13.544;2023-04-24T02:23:54;62.54;43.72;73.79;;
18377;Laerm;9315;52.624;13.544;2023-04-24T02:26:22;60.48;43.59;77.95;;
18377;Laerm;9315;52.624;13.544;2023-04-24T02:28:49;61.51;44.99;75.11;;
18377;Laerm;9315;52.624;13.544;2023-04-24T02:31:16;63.59;45.49;76.69;;
18377;Laerm;9315;52.624;13.544;2023-04-24T02:33:43;65.09;45.43;78.04;;
18377;Laerm;9315;52.624;13.544;2023-04-24T02:36:10;64.42;44.54;74.58;;
18377;Laerm;9315;52.624;13.544;2023-04-24T02:38:37;60.75;43.96;71.56;;
18377;Laerm;9315;52.624;13.544;2023-04-24T02:41:05;63.48;42.89;77.46;;
18377;Laerm;9315;52.624;13.544;2023-04-24T02:43:33;65.29;44.15;77.27;;
18377;Laerm;9315;52.624;13.544;2023-04-24T02:46:00;62.97;46.13;76.12;;
18377;Laerm;9315;52.624;13.544;2023-04-24T02:48:27;63.75;45.43;76.94;;
18377;Laerm;9315;52.624;13.544;2023-04-24T02:50:54;61.88;45.59;77.77;;
18377;Laerm;9315;52.624;13.544;2023-04-24T02:53:22;66.64;47.90;79.90;;
18377;Laerm;9315;52.624;13.544;2023-04-24T02:55:50;64.14;47.87;74.66;;
18377;Laerm;9315;52.624;13.544;2023-04-24T02:58:17;63.55;47.72;74.09;;
18377;Laerm;9315;52.624;13.544;2023-04-24T03:00:47;64.29;47.11;75.82;;
18377;Laerm;9315;52.624;13.544;2023-04-24T03:03:14;62.31;47.88;73.55;;
18377;Laerm;9315;52.624;13.544;2023-04-24T03:05:42;66.07;47.52;79.19;;
18377;Laerm;9315;52.624;13.544;2023-04-24T03:08:09;66.02;48.44;77.38;;
18377;Laerm;9315;52.624;13.544;2023-04-24T03:10:37;67.02;48.89;78.78;;
18377;Laerm;9315;52.624;13.544;2023-04-24T03:13:07;67.95;47.21;77.68;;
18377;Laerm;9315;52.624;13.544;2023-04-24T03:15:37;66.64;50.64;77.59;;
18377;Laerm;9315;52.624;13.544;2023-04-24T03:18:04;66.00;50.91;83.26;;
18377;Laerm;9315;52.624;13.544;2023-04-24T03:20:31;66.14;51.59;74.67;;
18377;Laerm;9315;52.624;13.544;2023-04-24T03:22:58;63.81;50.33;74.72;;
18377;Laerm;9315;52.624;13.544;2023-04-24T03:25:25;65.96;51.98;75.36;;
18377;Laerm;9315;52.624;13.544;2023-04-24T03:27:52;67.78;53.53;77.47;;
18377;Laerm;9315;52.624;13.544;2023-04-24T03:30:21;65.42;51.12;76.79;;
18377;Laerm;9315;52.624;13.544;2023-04-24T03:32:48;66.38;51.42;74.80;;
18377;Laerm;9315;52.624;13.544;2023-04-24T03:35:15;66.65;52.06;79.13;;
18377;Laerm;9315;52.624;13.544;2023-04-24T03:37:42;66.66;52.66;76.01;;
18377;Laerm;9315;52.624;13.544;2023-04-24T03:40:10;67.13;51.74;77.62;;
18377;Laerm;9315;52.624;13.544;2023-04-24T03:42:37;66.73;51.09;75.24;;
18377;Laerm;9315;52.624;13.544;2023-04-24T03:45:06;67.15;51.46;74.28;;
18377;Laerm;9315;52.624;13.544;2023-04-24T03:47:34;68.28;51.84;80.68;;
18377;Laerm;9315;52.624;13.544;2023-04-24T03:50:01;68.47;51.25;80.68;;
18377;Laerm;9315;52.624;13.544;2023-04-24T03:52:28;65.31;51.37;77.51;;
18377;Laerm;9315;52.624;13.544;2023-04-24T03:54:56;68.61;52.14;81.12;;
18377;Laerm;9315;52.624;13.544;2023-04-24T03:57:23;68.46;51.80;79.79;;
18377;Laerm;9315;52.624;13.544;2023-04-24T03:59:50;68.83;52.73;79.93;;
18377;Laerm;9315;52.624;13.544;2023-04-24T04:02:18;69.17;53.22;80.50;;
18377;Laerm;9315;52.624;13.544;2023-04-24T04:04:45;68.09;53.01;74.99;;
18377;Laerm;9315;52.624;13.544;2023-04-24T04:07:13;64.84;51.45;75.82;;
18377;Laerm;9315;52.624;13.544;2023-04-24T04:09:40;68.27;52.85;78.43;;
18377;Laerm;9315;52.624;13.544;2023-04-24T04:12:08;69.87;51.99;81.24;;
18377;Laerm;9315;52.624;13.544;2023-04-24T04:14:35;69.43;55.50;80.44;;
18377;Laerm;9315;52.624;13.544;2023-04-24T04:17:02;70.98;55.07;83.14;;
18377;Laerm;9315;52.624;13.544;2023-04-24T04:19:29;68.60;54.78;78.71;;
18377;Laerm;9315;52.624;13.544;2023-04-24T04:21:56;68.70;53.23;81.63;;
18377;Laerm;9315;52.624;13.544;2023-04-24T04:24:24;67.00;54.42;75.50;;
18377;Laerm;9315;52.624;13.544;2023-04-24T04:26:51;69.55;54.75;81.98;;
18377;Laerm;9315;52.624;13.544;2023-04-24T04:29:19;69.66;55.21;80.30;;
18377;Laerm;9315;52.624;13.544;2023-04-24T04:31:46;67.76;55.14;76.20;;
18377;Laerm;9315;52.624;13.544;2023-04-24T04:34:13;69.33;54.26;79.83;;
18377;Laerm;9315;52.624;13.544;2023-04-24T04:36:45;68.54;53.75;78.17;;
18377;Laerm;9315;52.624;13.544;2023-04-24T04:39:17;69.35;54.05;81.30;;
18377;Laerm;9315;52.624;13.544;2023-04-24T04:41:45;68.80;54.20;79.49;;
18377;Laerm;9315;52.624;13.544;2023-04-24T04:44:16;69.46;54.18;77.34;;
18377;Laerm;9315;52.624;13.544;2023-04-24T04:46:43;67.36;54.28;76.03;;
18377;Laerm;9315;52.624;13.544;2023-04-24T04:49:11;68.13;52.75;76.42;;
18377;Laerm;9315;52.624;13.544;2023-04-24T04:51:38;68.87;52.45;79.36;;
18377;Laerm;9315;52.624;13.544;2023-04-24T04:54:08;81.02;52.68;105.54;;
18377;Laerm;9315;52.624;13.544;2023-04-24T04:56:35;70.43;54.06;81.30;;
18377;Laerm;9315;52.624;13.544;2023-04-24T04:59:03;69.97;57.26;80.09;;
18377;Laerm;9315;52.624;13.544;2023-04-24T05:01:44;70.75;54.06;86.26;;
18377;Laerm;9315;52.624;13.544;2023-04-24T05:04:11;68.97;54.00;81.24;;
18377;Laerm;9315;52.624;13.544;2023-04-24T05:06:39;70.23;54.23;79.35;;
18377;Laerm;9315;52.624;13.544;2023-04-24T05:09:06;68.28;52.30;77.23;;
18377;Laerm;9315;52.624;13.544;2023-04-24T05:11:34;69.92;53.37;84.42;;
18377;Laerm;9315;52.624;13.544;2023-04-24T05:14:04;68.31;54.20;81.65;;
18377;Laerm;9315;52.624;13.544;2023-04-24T05:16:33;69.44;54.64;77.45;;
18377;Laerm;9315;52.624;13.544;2023-04-24T05:19:01;70.30;55.06;79.77;;
18377;Laerm;9315;52.624;13.544;2023-04-24T05:21:28;71.45;51.66;83.16;;
18377;Laerm;9315;52.624;13.544;2023-04-24T05:23:56;69.77;55.18;80.62;;
18377;Laerm;9315;52.624;13.544;2023-04-24T05:26:23;70.46;53.92;80.83;;
18377;Laerm;9315;52.624;13.544;2023-04-24T05:28:51;69.16;55.28;79.07;;
18377;Laerm;9315;52.624;13.544;2023-04-24T05:31:18;69.24;51.40;78.82;;
18377;Laerm;9315;52.624;13.544;2023-04-24T05:33:45;69.46;50.70;79.39;;
18377;Laerm;9315;52.624;13.544;2023-04-24T05:36:12;68.78;50.71;76.74;;
18377;Laerm;9315;52.624;13.544;2023-04-24T05:38:40;70.23;50.94;81.44;;
18377;Laerm;9315;52.624;13.544;2023-04-24T05:41:07;66.83;51.09;75.50;;
18377;Laerm;9315;52.624;13.544;2023-04-24T05:43:34;69.07;53.86;82.52;;
18377;Laerm;9315;52.624;13.544;2023-04-24T05:46:01;70.10;51.66;80.98;;
18377;Laerm;9315;52.624;13.544;2023-04-24T05:48:28;69.17;50.47;79.72;;
18377;Laerm;9315;52.624;13.544;2023-04-24T05:50:56;69.45;52.16;76.96;;
18377;Laerm;9315;52.624;13.544;2023-04-24T05:53:26;69.56;48.95;79.90;;
18377;Laerm;9315;52.624;13.544;2023-04-24T05:55:53;69.23;49.43;79.28;;
18377;Laerm;9315;52.624;13.544;2023-04-24T05:58:20;66.57;49.12;76.94;;
18377;Laerm;9315;52.624;13.544;2023-04-24T06:00:47;67.24;48.43;76.31;;
18377;Laerm;9315;52.624;13.544;2023-04-24T06:03:20;65.93;49.09;75.62;;
18377;Laerm;9315;52.624;13.544;2023-04-24T06:05:50;69.49;50.17;78.96;;
18377;Laerm;9315;52.624;13.544;2023-04-24T06:08:17;68.35;51.48;79.82;;
18377;Laerm;9315;52.624;13.544;2023-04-24T06:10:45;69.43;51.91;79.51;;
18377;Laerm;9315;52.624;13.544;2023-04-24T06:13:12;68.47;48.87;80.61;;
18377;Laerm;9315;52.624;13.544;2023-04-24T06:15:43;69.78;50.97;78.25;;
18377;Laerm;9315;52.624;13.544;2023-04-24T06:18:10;68.02;48.60;81.68;;
18377;Laerm;9315;52.624;13.544;2023-04-24T06:20:37;69.59;48.50;79.95;;
18377;Laerm;9315;52.624;13.544;2023-04-24T06:23:04;68.50;50.41;76.95;;
18377;Laerm;9315;52.624;13.544;2023-04-24T06:25:32;70.18;54.09;80.34;;
18377;Laerm;9315;52.624;13.544;2023-04-24T06:27:59;67.81;49.53;76.44;;
18377;Laerm;9315;52.624;13.544;2023-04-24T06:30:28;65.69;48.39;76.79;;
18377;Laerm;9315;52.624;13.544;2023-04-24T06:32:56;68.71;48.52;79.73;;
18377;Laerm;9315;52.624;13.544;2023-04-24T06:35:36;69.80;49.60;82.05;;
18377;Laerm;9315;52.624;13.544;2023-04-24T06:38:05;67.27;48.54;80.27;;
18377;Laerm;9315;52.624;13.544;2023-04-24T06:40:32;68.90;48.29;79.07;;
18377;Laerm;9315;52.624;13.544;2023-04-24T06:43:00;69.12;47.92;82.85;;
18377;Laerm;9315;52.624;13.544;2023-04-24T06:45:34;68.83;47.96;80.95;;
18377;Laerm;9315;52.624;13.544;2023-04-24T06:48:01;69.92;48.96;81.12;;
18377;Laerm;9315;52.624;13.544;2023-04-24T06:50:28;67.83;50.01;76.44;;
18377;Laerm;9315;52.624;13.544;2023-04-24T06:52:56;68.91;50.37;76.91;;
18377;Laerm;9315;52.624;13.544;2023-04-24T06:55:23;68.56;48.87;80.25;;
18377;Laerm;9315;52.624;13.544;2023-04-24T06:57:50;69.04;49.40;80.95;;
18377;Laerm;9315;52.624;13.544;2023-04-24T07:00:18;67.51;47.89;78.98;;
18377;Laerm;9315;52.624;13.544;2023-04-24T07:02:45;69.22;51.72;84.55;;
18377;Laerm;9315;52.624;13.544;2023-04-24T07:05:12;64.42;46.49;75.27;;
18377;Laerm;9315;52.624;13.544;2023-04-24T07:07:40;69.92;48.38;86.21;;
18377;Laerm;9315;52.624;13.544;2023-04-24T07:10:08;68.06;46.54;84.43;;
18377;Laerm;9315;52.624;13.544;2023-04-24T07:12:35;68.64;47.31;80.35;;
18377;Laerm;9315;52.624;13.544;2023-04-24T07:15:05;69.95;49.40;79.35;;
18377;Laerm;9315;52.624;13.544;2023-04-24T07:17:32;69.00;49.50;78.14;;
18377;Laerm;9315;52.624;13.544;2023-04-24T07:20:00;70.61;46.47;85.11;;
18377;Laerm;9315;52.624;13.544;2023-04-24T07:22:27;70.53;47.32;82.80;;
18377;Laerm;9315;52.624;13.544;2023-04-24T07:24:54;66.79;46.22;79.14;;
18377;Laerm;9315;52.624;13.544;2023-04-24T07:27:22;68.48;46.15;79.49;;
18377;Laerm;9315;52.624;13.544;2023-04-24T07:29:49;68.59;47.63;77.08;;
18377;Laerm;9315;52.624;13.544;2023-04-24T07:32:16;69.05;49.65;80.09;;
18377;Laerm;9315;52.624;13.544;2023-04-24T07:34:43;70.51;48.24;83.87;;
18377;Laerm;9315;52.624;13.544;2023-04-24T07:37:10;67.85;45.24;81.11;;
18377;Laerm;9315;52.624;13.544;2023-04-24T07:39:38;69.12;45.70;80.36;;
18377;Laerm;9315;52.624;13.544;2023-04-24T07:42:05;69.90;48.89;78.48;;
18377;Laerm;9315;52.624;13.544;2023-04-24T07:44:32;68.10;47.10;77.29;;
18377;Laerm;9315;52.624;13.544;2023-04-24T07:46:59;66.76;47.83;77.50;;
18377;Laerm;9315;52.624;13.544;2023-04-24T07:49:26;67.77;45.94;79.59;;
18377;Laerm;9315;52.624;13.544;2023-04-24T07:51:54;70.50;46.61;82.94;;
18377;Laerm;9315;52.624;13.544;2023-04-24T07:54:21;68.07;45.32;76.96;;
18377;Laerm;9315;52.624;13.544;2023-04-24T07:56:49;69.40;49.20;78.97;;
18377;Laerm;9315;52.624;13.544;2023-04-24T07:59:16;69.99;45.80;82.63;;
18377;Laerm;9315;52.624;13.544;2023-04-24T08:01:49;68.22;46.33;77.15;;
18377;Laerm;9315;52.624;13.544;2023-04-24T08:04:16;66.56;46.18;75.91;;
18377;Laerm;9315;52.624;13.544;2023-04-24T08:06:45;67.96;44.90;78.06;;
18377;Laerm;9315;52.624;13.544;2023-04-24T08:09:12;68.47;45.14;83.18;;
18377;Laerm;9315;52.624;13.544;2023-04-24T08:11:40;70.21;46.04;85.51;;
18377;Laerm;9315;52.624;13.544;2023-04-24T08:14:07;67.84;49.01;78.74;;
18377;Laerm;9315;52.624;13.544;2023-04-24T08:16:34;69.40;44.79;88.32;;
18377;Laerm;9315;52.624;13.544;2023-04-24T08:19:02;69.36;50.87;81.21;;
18377;Laerm;9315;52.624;13.544;2023-04-24T08:21:29;68.51;47.00;76.97;;
18377;Laerm;9315;52.624;13.544;2023-04-24T08:23:57;67.77;48.90;77.43;;
18377;Laerm;9315;52.624;13.544;2023-04-24T08:26:24;68.74;49.16;81.72;;
18377;Laerm;9315;52.624;13.544;2023-04-24T08:28:51;68.49;51.33;79.54;;
18377;Laerm;9315;52.624;13.544;2023-04-24T08:31:20;67.83;50.38;81.12;;
18377;Laerm;9315;52.624;13.544;2023-04-24T08:33:47;67.91;49.69;79.43;;
18377;Laerm;9315;52.624;13.544;2023-04-24T08:36:15;67.63;45.74;76.53;;
18377;Laerm;9315;52.624;13.544;2023-04-24T08:38:42;68.85;45.20;77.19;;
18377;Laerm;9315;52.624;13.544;2023-04-24T08:41:10;68.19;46.91;78.61;;
18377;Laerm;9315;52.624;13.544;2023-04-24T08:43:39;69.28;46.55;82.14;;
18377;Laerm;9315;52.624;13.544;2023-04-24T08:46:07;65.22;44.33;75.31;;
18377;Laerm;9315;52.624;13.544;2023-04-24T08:48:39;68.68;44.02;76.93;;
18377;Laerm;9315;52.624;13.544;2023-04-24T08:51:08;69.49;47.11;80.83;;
18377;Laerm;9315;52.624;13.544;2023-04-24T08:53:36;68.55;47.67;79.55;;
18377;Laerm;9315;52.624;13.544;2023-04-24T08:56:07;67.23;45.80;78.47;;
18377;Laerm;9315;52.624;13.544;2023-04-24T08:58:34;67.89;46.72;81.26;;
18377;Laerm;9315;52.624;13.544;2023-04-24T09:01:06;67.96;44.78;76.80;;
18377;Laerm;9315;52.624;13.544;2023-04-24T09:03:35;69.49;45.76;86.28;;
18377;Laerm;9315;52.624;13.544;2023-04-24T09:06:03;66.59;46.34;77.46;;
18377;Laerm;9315;52.624;13.544;2023-04-24T09:08:31;65.93;45.94;75.36;;
18377;Laerm;9315;52.624;13.544;2023-04-24T09:10:59;68.04;47.49;75.27;;
18377;Laerm;9315;52.624;13.544;2023-04-24T09:13:30;67.31;45.82;76.16;;
18377;Laerm;9315;52.624;13.544;2023-04-24T09:15:57;67.31;44.25;75.13;;
18377;Laerm;9315;52.624;13.544;2023-04-24T09:18:25;68.31;44.36;78.80;;
18377;Laerm;9315;52.624;13.544;2023-04-24T09:21:04;68.39;47.19;77.84;;
18377;Laerm;9315;52.624;13.544;2023-04-24T09:23:32;69.23;45.69;85.55;;
18377;Laerm;9315;52.624;13.544;2023-04-24T09:26:02;67.69;45.92;77.12;;
18377;Laerm;9315;52.624;13.544;2023-04-24T09:28:38;66.55;46.77;76.70;;
18377;Laerm;9315;52.624;13.544;2023-04-24T09:31:18;68.79;45.05;78.87;;
18377;Laerm;9315;52.624;13.544;2023-04-24T09:34:01;67.82;45.41;80.21;;
18377;Laerm;9315;52.624;13.544;2023-04-24T09:36:42;68.69;45.98;79.41;;
18377;Laerm;9315;52.624;13.544;2023-04-24T09:39:18;67.95;48.03;82.71;;
18377;Laerm;9315;52.624;13.544;2023-04-24T09:41:55;68.98;48.62;81.49;;
18377;Laerm;9315;52.624;13.544;2023-04-24T09:44:28;67.10;45.83;81.28;;
18377;Laerm;9315;52.624;13.544;2023-04-24T09:46:59;67.13;45.31;74.92;;
18377;Laerm;9315;52.624;13.544;2023-04-24T09:49:30;67.82;46.09;79.72;;
18377;Laerm;9315;52.624;13.544;2023-04-24T09:52:11;65.95;46.44;76.63;;
18377;Laerm;9315;52.624;13.544;2023-04-24T09:54:39;68.48;49.09;77.89;;
18377;Laerm;9315;52.624;13.544;2023-04-24T09:57:09;66.53;45.66;76.92;;
18377;Laerm;9315;52.624;13.544;2023-04-24T09:59:45;69.39;46.13;80.70;;
18377;Laerm;9315;52.624;13.544;2023-04-24T10:02:20;67.49;46.70;78.08;;
18377;Laerm;9315;52.624;13.544;2023-04-24T10:04:57;69.96;47.54;79.95;;
18377;Laerm;9315;52.624;13.544;2023-04-24T10:07:27;68.02;47.67;78.98;;
18377;Laerm;9315;52.624;13.544;2023-04-24T10:09:54;69.98;47.90;85.30;;
18377;Laerm;9315;52.624;13.544;2023-04-24T10:12:23;65.52;44.84;76.59;;
18377;Laerm;9315;52.624;13.544;2023-04-24T10:14:52;69.08;45.74;81.82;;
18377;Laerm;9315;52.624;13.544;2023-04-24T10:17:20;68.93;48.80;81.78;;
18377;Laerm;9315;52.624;13.544;2023-04-24T10:19:48;71.05;48.94;85.90;;
18377;Laerm;9315;52.624;13.544;2023-04-24T10:22:16;68.31;47.57;78.73;;
18377;Laerm;9315;52.624;13.544;2023-04-24T10:24:44;68.17;46.63;77.00;;
18377;Laerm;9315;52.624;13.544;2023-04-24T10:27:13;67.99;47.48;78.77;;
18377;Laerm;9315;52.624;13.544;2023-04-24T10:29:43;70.18;48.55;82.99;;
18377;Laerm;9315;52.624;13.544;2023-04-24T10:32:12;69.32;48.44;81.00;;
18377;Laerm;9315;52.624;13.544;2023-04-24T10:34:39;67.46;45.92;77.22;;
18377;Laerm;9315;52.624;13.544;2023-04-24T10:37:07;67.75;47.39;76.45;;
18377;Laerm;9315;52.624;13.544;2023-04-24T10:39:34;67.66;46.87;79.87;;
18377;Laerm;9315;52.624;13.544;2023-04-24T10:42:15;66.50;47.97;76.31;;
18377;Laerm;9315;52.624;13.544;2023-04-24T10:44:42;77.82;48.99;102.52;;
18377;Laerm;9315;52.624;13.544;2023-04-24T10:47:14;69.92;48.18;83.35;;
18377;Laerm;9315;52.624;13.544;2023-04-24T10:49:41;68.64;50.06;79.32;;
18377;Laerm;9315;52.624;13.544;2023-04-24T10:52:12;68.68;47.61;81.54;;
18377;Laerm;9315;52.624;13.544;2023-04-24T10:54:49;67.83;49.40;78.19;;
18377;Laerm;9315;52.624;13.544;2023-04-24T10:57:29;67.31;47.63;80.50;;
18377;Laerm;9315;52.624;13.544;2023-04-24T11:00:21;68.00;46.24;77.57;;
18377;Laerm;9315;52.624;13.544;2023-04-24T11:02:49;68.20;48.96;78.94;;
18377;Laerm;9315;52.624;13.544;2023-04-24T11:05:51;67.05;48.10;79.02;;
18377;Laerm;9315;52.624;13.544;2023-04-24T11:08:45;67.48;47.75;78.65;;
18377;Laerm;9315;52.624;13.544;2023-04-24T11:11:17;67.70;48.83;79.51;;
18377;Laerm;9315;52.624;13.544;2023-04-24T11:16:51;69.99;50.06;81.78;;
18377;Laerm;9315;52.624;13.544;2023-04-24T11:19:24;68.23;52.14;77.87;;
18377;Laerm;9315;52.624;13.544;2023-04-24T11:22:04;67.40;50.94;76.63;;
18377;Laerm;9315;52.624;13.544;2023-04-24T11:24:54;68.39;47.42;77.19;;
18377;Laerm;9315;52.624;13.544;2023-04-24T11:27:23;68.53;49.18;77.35;;
18377;Laerm;9315;52.624;13.544;2023-04-24T11:32:42;68.43;46.33;81.59;;
18377;Laerm;9315;52.624;13.544;2023-04-24T11:35:18;67.23;46.60;76.12;;
18377;Laerm;9315;52.624;13.544;2023-04-24T11:37:49;82.02;49.82;107.86;;
18377;Laerm;9315;52.624;13.544;2023-04-24T11:40:37;67.55;50.23;76.67;;
18377;Laerm;9315;52.624;13.544;2023-04-24T11:43:06;69.69;49.90;78.74;;
18377;Laerm;9315;52.624;13.544;2023-04-24T11:45:37;67.66;49.19;77.69;;
18377;Laerm;9315;52.624;13.544;2023-04-24T11:48:04;84.56;52.68;106.29;;
18377;Laerm;9315;52.624;13.544;2023-04-24T11:50:37;67.50;51.53;77.73;;
18377;Laerm;9315;52.624;13.544;2023-04-24T11:53:04;69.20;51.43;80.31;;
18377;Laerm;9315;52.624;13.544;2023-04-24T11:55:31;69.09;51.01;83.73;;
18377;Laerm;9315;52.624;13.544;2023-04-24T11:58:02;68.81;49.28;76.45;;
18377;Laerm;9315;52.624;13.544;2023-04-24T12:00:34;67.89;50.17;79.41;;
18377;Laerm;9315;52.624;13.544;2023-04-24T12:03:11;68.97;49.39;83.83;;
18377;Laerm;9315;52.624;13.544;2023-04-24T12:05:40;68.85;48.58;78.10;;
18377;Laerm;9315;52.624;13.544;2023-04-24T12:08:08;68.89;48.99;78.56;;
18377;Laerm;9315;52.624;13.544;2023-04-24T12:14:54;69.39;49.67;78.51;;
18377;Laerm;9315;52.624;13.544;2023-04-24T12:17:31;67.57;48.18;77.26;;
18377;Laerm;9315;52.624;13.544;2023-04-24T12:20:07;68.96;48.54;78.43;;
18377;Laerm;9315;52.624;13.544;2023-04-24T12:23:00;68.12;44.23;80.87;;
18377;Laerm;9315;52.624;13.544;2023-04-24T12:25:34;68.45;49.17;77.98;;
18377;Laerm;9315;52.624;13.544;2023-04-24T12:30:49;68.97;47.10;81.33;;
18377;Laerm;9315;52.624;13.544;2023-04-24T12:33:21;68.24;46.55;79.48;;
18377;Laerm;9315;52.624;13.544;2023-04-24T12:35:52;67.92;47.33;77.13;;
18377;Laerm;9315;52.624;13.544;2023-04-24T12:38:27;69.14;49.25;79.51;;
18377;Laerm;9315;52.624;13.544;2023-04-24T12:41:06;68.29;47.39;78.37;;
18377;Laerm;9315;52.624;13.544;2023-04-24T12:43:37;69.44;50.25;79.13;;
18377;Laerm;9315;52.624;13.544;2023-04-24T12:46:06;67.39;49.05;77.32;;
18377;Laerm;9315;52.624;13.544;2023-04-24T12:48:33;66.83;48.90;76.19;;
18377;Laerm;9315;52.624;13.544;2023-04-24T12:51:01;69.72;52.37;89.62;;
18377;Laerm;9315;52.624;13.544;2023-04-24T12:53:31;68.96;49.04;77.88;;
18377;Laerm;9315;52.624;13.544;2023-04-24T12:55:58;68.69;49.03;80.99;;
18377;Laerm;9315;52.624;13.544;2023-04-24T12:58:36;68.05;47.76;82.24;;
18377;Laerm;9315;52.624;13.544;2023-04-24T13:01:06;68.49;48.69;78.55;;
18377;Laerm;9315;52.624;13.544;2023-04-24T13:03:33;67.98;48.67;78.17;;
18377;Laerm;9315;52.624;13.544;2023-04-24T13:06:01;68.14;47.10;78.51;;
18377;Laerm;9315;52.624;13.544;2023-04-24T13:08:28;69.85;51.62;80.77;;
18377;Laerm;9315;52.624;13.544;2023-04-24T13:10:58;68.89;49.10;85.73;;
18377;Laerm;9315;52.624;13.544;2023-04-24T13:13:25;68.43;50.18;78.83;;
18377;Laerm;9315;52.624;13.544;2023-04-24T13:15:52;69.05;48.97;77.18;;
18377;Laerm;9315;52.624;13.544;2023-04-24T13:18:19;68.06;47.12;77.62;;
18377;Laerm;9315;52.624;13.544;2023-04-24T13:20:49;68.04;50.37;79.30;;
18377;Laerm;9315;52.624;13.544;2023-04-24T13:23:22;67.79;48.38;77.80;;
18377;Laerm;9315;52.624;13.544;2023-04-24T13:25:50;68.56;48.53;76.50;;
18377;Laerm;9315;52.624;13.544;2023-04-24T13:28:17;68.47;46.93;76.13;;
18377;Laerm;9315;52.624;13.544;2023-04-24T13:30:44;68.58;46.74;78.81;;
18377;Laerm;9315;52.624;13.544;2023-04-24T13:33:11;69.59;48.18;80.41;;
18377;Laerm;9315;52.624;13.544;2023-04-24T13:35:39;69.23;47.76;78.87;;
18377;Laerm;9315;52.624;13.544;2023-04-24T13:38:06;69.15;50.09;79.24;;
18377;Laerm;9315;52.624;13.544;2023-04-24T13:40:35;70.78;48.20;82.22;;
18377;Laerm;9315;52.624;13.544;2023-04-24T13:43:03;68.19;48.59;76.74;;
18377;Laerm;9315;52.624;13.544;2023-04-24T13:45:30;70.04;48.24;82.19;;
18377;Laerm;9315;52.624;13.544;2023-04-24T13:47:57;69.02;46.14;81.73;;
18377;Laerm;9315;52.624;13.544;2023-04-24T13:50:24;68.82;48.79;78.72;;
18377;Laerm;9315;52.624;13.544;2023-04-24T13:52:52;68.64;46.45;81.31;;
18377;Laerm;9315;52.624;13.544;2023-04-24T13:55:19;68.06;48.42;77.47;;
18377;Laerm;9315;52.624;13.544;2023-04-24T13:57:47;70.17;46.70;78.94;;
18377;Laerm;9315;52.624;13.544;2023-04-24T14:00:15;70.37;52.14;81.44;;
18377;Laerm;9315;52.624;13.544;2023-04-24T14:02:45;69.07;48.41;79.56;;
18377;Laerm;9315;52.624;13.544;2023-04-24T14:05:13;68.09;44.77;76.40;;
18377;Laerm;9315;52.624;13.544;2023-04-24T14:07:42;68.03;46.61;78.42;;